createdAt,value
2023-02-01T00:00:53.219Z,84.37
2023-02-01T00:03:20.057Z,84.48
2023-02-01T00:05:46.492Z,83.24
2023-02-01T00:08:12.835Z,82.61
2023-02-01T00:10:39.164Z,83.47
2023-02-01T00:13:05.477Z,83.22
2023-02-01T00:15:31.902Z,83.45
2023-02-01T00:17:58.319Z,82.93
2023-02-01T00:20:24.640Z,82.77
2023-02-01T00:22:51.033Z,82.23
2023-02-01T00:25:17.430Z,82.40
2023-02-01T00:27:43.742Z,82.70
2023-02-01T00:30:10.163Z,82.90
2023-02-01T00:32:36.480Z,82.90
2023-02-01T00:35:02.878Z,83.18
2023-02-01T00:37:29.228Z,83.75
2023-02-01T00:39:56.851Z,82.93
2023-02-01T00:42:23.196Z,83.09
2023-02-01T00:44:49.503Z,82.88
2023-02-01T00:47:15.839Z,83.08
2023-02-01T00:49:42.139Z,83.39
2023-02-01T00:52:08.450Z,83.78
2023-02-01T00:54:34.957Z,83.45
2023-02-01T00:57:01.269Z,82.81
2023-02-01T00:59:27.642Z,82.87
2023-02-01T01:01:54.099Z,81.61
2023-02-01T01:04:20.416Z,81.77
2023-02-01T01:06:46.787Z,81.29
2023-02-01T01:09:13.099Z,80.82
2023-02-01T01:11:39.477Z,81.23
2023-02-01T01:14:05.833Z,81.43
2023-02-01T01:16:32.213Z,81.16
2023-02-01T01:18:58.565Z,80.66
2023-02-01T01:21:24.909Z,80.56
2023-02-01T01:23:51.231Z,80.60
2023-02-01T01:26:17.635Z,80.55
2023-02-01T01:28:43.957Z,79.93
2023-02-01T01:31:10.700Z,79.30
2023-02-01T01:33:37.065Z,79.30
2023-02-01T01:36:03.387Z,79.21
2023-02-01T01:38:29.680Z,78.92
2023-02-01T01:40:56.015Z,79.58
2023-02-01T01:43:23.694Z,78.17
2023-02-01T01:45:50.661Z,78.47
2023-02-01T01:48:17.016Z,78.64
2023-02-01T01:50:43.348Z,78.10
2023-02-01T01:53:09.653Z,78.06
2023-02-01T01:55:35.981Z,77.76
2023-02-01T01:58:02.330Z,77.70
2023-02-01T02:00:28.764Z,78.70
2023-02-01T02:02:55.183Z,77.94
2023-02-01T02:05:21.576Z,78.11
2023-02-01T02:07:47.930Z,78.09
2023-02-01T02:10:14.244Z,78.26
2023-02-01T02:12:40.565Z,77.68
2023-02-01T02:15:07.657Z,77.47
2023-02-01T02:17:33.978Z,77.56
2023-02-01T02:20:00.287Z,76.73
2023-02-01T02:22:26.877Z,76.52
2023-02-01T02:24:53.194Z,76.39
2023-02-01T02:27:25.864Z,75.93
2023-02-01T02:29:52.218Z,75.84
2023-02-01T02:32:18.526Z,75.81
2023-02-01T02:34:44.852Z,75.65
2023-02-01T02:37:11.161Z,75.35
2023-02-01T02:39:37.477Z,75.28
2023-02-01T02:42:22.487Z,75.68
2023-02-01T02:45:07.361Z,75.45
2023-02-01T02:47:33.697Z,75.72
2023-02-01T02:50:19.125Z,76.11
2023-02-01T02:53:04.369Z,76.12
2023-02-01T02:55:30.721Z,76.24
2023-02-01T02:58:15.849Z,77.37
2023-02-01T03:01:00.796Z,77.43
2023-02-01T03:03:45.710Z,76.55
2023-02-01T03:06:12.017Z,76.71
2023-02-01T03:08:38.329Z,76.91
2023-02-01T03:11:05.219Z,76.79
2023-02-01T03:13:31.526Z,76.69
2023-02-01T03:15:57.935Z,76.79
2023-02-01T03:18:24.264Z,76.29
2023-02-01T03:20:50.593Z,76.57
2023-02-01T03:23:16.943Z,76.62
2023-02-01T03:25:43.256Z,76.18
2023-02-01T03:28:10.080Z,77.14
2023-02-01T03:30:36.412Z,76.72
2023-02-01T03:33:03.085Z,77.00
2023-02-01T03:35:29.886Z,77.12
2023-02-01T03:37:56.218Z,76.72
2023-02-01T03:40:22.822Z,76.33
2023-02-01T03:42:49.345Z,76.13
2023-02-01T03:45:15.677Z,75.89
2023-02-01T03:47:42.007Z,76.03
2023-02-01T03:50:08.360Z,76.10
2023-02-01T03:52:35.739Z,75.99
2023-02-01T03:55:02.051Z,75.44
2023-02-01T03:57:28.406Z,75.43
2023-02-01T03:59:54.743Z,76.08
2023-02-01T04:02:21.104Z,75.50
2023-02-01T04:04:47.447Z,75.39
2023-02-01T04:07:13.767Z,75.61
2023-02-01T04:09:40.105Z,74.95
2023-02-01T04:12:06.451Z,75.39
2023-02-01T04:14:32.776Z,75.54
2023-02-01T04:16:59.078Z,75.25
2023-02-01T04:19:25.399Z,75.68
2023-02-01T04:21:51.722Z,74.69
2023-02-01T04:24:18.063Z,74.31
2023-02-01T04:26:44.467Z,74.82
2023-02-01T04:29:11.298Z,74.67
2023-02-01T04:31:37.822Z,73.79
2023-02-01T04:34:04.257Z,73.66
2023-02-01T04:36:30.555Z,73.44
2023-02-01T04:38:56.883Z,74.17
2023-02-01T04:41:23.929Z,73.47
2023-02-01T04:43:50.262Z,74.06
2023-02-01T04:46:16.633Z,73.24
2023-02-01T04:48:43.021Z,73.56
2023-02-01T04:51:09.356Z,73.34
2023-02-01T04:53:35.722Z,72.78
2023-02-01T04:56:02.230Z,73.11
2023-02-01T04:58:28.586Z,73.06
2023-02-01T05:00:54.986Z,72.89
2023-02-01T05:03:21.376Z,72.89
2023-02-01T05:05:47.704Z,73.02
2023-02-01T05:08:14.005Z,72.79
2023-02-01T05:10:40.325Z,73.40
2023-02-01T05:13:25.392Z,73.13
2023-02-01T05:15:51.770Z,73.16
2023-02-01T05:18:18.093Z,72.76
2023-02-01T05:20:44.451Z,72.38
2023-02-01T05:23:10.785Z,72.13
2023-02-01T05:25:37.112Z,72.18
2023-02-01T05:28:03.766Z,72.40
2023-02-01T05:30:30.562Z,72.44
2023-02-01T05:32:56.875Z,72.94
2023-02-01T05:35:23.204Z,72.71
2023-02-01T05:37:49.520Z,73.02
2023-02-01T05:40:15.885Z,72.12
2023-02-01T05:42:42.249Z,72.19
2023-02-01T05:45:08.702Z,72.36
2023-02-01T05:47:35.091Z,72.14
2023-02-01T05:50:01.713Z,72.18
2023-02-01T05:52:28.090Z,72.74
2023-02-01T05:54:54.432Z,72.28
2023-02-01T05:57:20.775Z,71.96
2023-02-01T05:59:47.108Z,71.44
2023-02-01T06:02:13.424Z,71.70
2023-02-01T06:04:40.228Z,70.94
2023-02-01T06:07:08.093Z,71.40
2023-02-01T06:09:34.421Z,72.22
2023-02-01T06:12:02.109Z,71.97
2023-02-01T06:14:28.707Z,72.68
2023-02-01T06:16:55.137Z,71.91
2023-02-01T06:19:21.449Z,72.21
2023-02-01T06:21:47.995Z,71.93
2023-02-01T06:24:14.362Z,72.25
2023-02-01T06:26:41.207Z,72.13
2023-02-01T06:29:07.727Z,71.60
2023-02-01T06:31:34.162Z,72.37
2023-02-01T06:34:00.589Z,72.75
2023-02-01T06:36:26.916Z,72.69
2023-02-01T06:38:53.346Z,72.24
2023-02-01T06:41:21.611Z,72.54
2023-02-01T06:43:48.138Z,72.32
2023-02-01T06:46:14.559Z,73.46
2023-02-01T06:48:40.869Z,73.44
2023-02-01T06:51:07.249Z,74.08
2023-02-01T06:53:33.597Z,75.85
2023-02-01T06:55:59.912Z,75.74
2023-02-01T06:58:26.221Z,76.67
2023-02-01T07:00:54.940Z,76.42
2023-02-01T07:03:21.321Z,75.71
2023-02-01T07:05:47.649Z,75.73
2023-02-01T07:08:13.976Z,75.48
2023-02-01T07:10:40.412Z,76.08
2023-02-01T07:13:06.741Z,76.08
2023-02-01T07:15:33.061Z,76.45
2023-02-01T07:17:59.388Z,77.04
2023-02-01T07:20:25.877Z,78.10
2023-02-01T07:22:52.255Z,79.14
2023-02-01T07:25:18.577Z,79.99
2023-02-01T07:27:45.186Z,82.01
2023-02-01T07:30:11.505Z,83.53
2023-02-01T07:32:37.887Z,86.59
2023-02-01T07:35:04.215Z,88.53
2023-02-01T07:37:31.807Z,90.22
2023-02-01T07:39:58.195Z,90.99
2023-02-01T07:42:24.507Z,92.74
2023-02-01T07:44:50.866Z,92.82
2023-02-01T07:47:17.214Z,92.27
2023-02-01T07:49:43.574Z,92.01
2023-02-01T07:52:12.279Z,92.00
2023-02-01T07:54:38.600Z,90.86
2023-02-01T07:57:04.936Z,90.68
2023-02-01T07:59:31.241Z,90.15
2023-02-01T08:01:57.571Z,89.21
2023-02-01T08:04:23.941Z,88.32
2023-02-01T08:06:50.272Z,89.15
2023-02-01T08:09:16.714Z,87.26
2023-02-01T08:11:43.106Z,85.19
2023-02-01T08:14:09.419Z,85.56
2023-02-01T08:16:37.636Z,85.89
2023-02-01T08:19:03.987Z,85.65
2023-02-01T08:21:37.707Z,85.98
2023-02-01T08:24:04.218Z,85.88
2023-02-01T08:26:30.568Z,86.09
2023-02-01T08:28:56.911Z,86.27
2023-02-01T08:31:24.604Z,86.38
2023-02-01T08:33:50.973Z,87.75
2023-02-01T08:36:17.282Z,88.82
2023-02-01T08:38:43.671Z,90.93
2023-02-01T08:41:09.967Z,90.01
2023-02-01T08:43:36.335Z,88.23
2023-02-01T08:46:02.728Z,85.90
2023-02-01T08:48:29.110Z,83.82
2023-02-01T08:50:55.545Z,82.15
2023-02-01T08:53:21.849Z,80.75
2023-02-01T08:55:48.184Z,78.89
2023-02-01T08:58:15.117Z,79.24
2023-02-01T09:00:41.481Z,77.85
2023-02-01T09:03:07.790Z,76.78
2023-02-01T09:05:48.407Z,76.61
2023-02-01T09:08:16.089Z,75.96
2023-02-01T09:10:42.524Z,76.18
2023-02-01T09:13:08.988Z,76.15
2023-02-01T09:15:35.344Z,75.95
2023-02-01T09:18:01.918Z,75.51
2023-02-01T09:20:28.234Z,76.23
2023-02-01T09:22:54.607Z,75.43
2023-02-01T09:25:21.041Z,76.54
2023-02-01T09:27:47.465Z,76.80
2023-02-01T09:30:13.776Z,78.51
2023-02-01T09:32:40.105Z,78.19
2023-02-01T09:35:06.419Z,78.32
2023-02-01T09:37:34.001Z,81.54
2023-02-01T09:40:00.351Z,83.49
2023-02-01T09:42:26.645Z,84.21
2023-02-01T09:44:53.023Z,85.35
2023-02-01T09:47:19.352Z,85.12
2023-02-01T09:49:47.362Z,86.24
2023-02-01T09:52:13.726Z,89.81
2023-02-01T09:54:40.042Z,93.50
2023-02-01T09:57:06.376Z,96.60
2023-02-01T09:59:32.698Z,98.45
2023-02-01T10:02:00.479Z,99.55
2023-02-01T10:04:26.854Z,100.00
2023-02-01T10:06:53.157Z,100.00
2023-02-01T10:09:19.514Z,100.00
2023-02-01T10:11:51.999Z,100.00
2023-02-01T10:14:18.316Z,100.00
2023-02-01T10:16:44.922Z,100.00
2023-02-01T10:19:11.366Z,100.00
2023-02-01T10:21:40.738Z,100.00
2023-02-01T10:24:17.338Z,100.00
2023-02-01T10:26:47.000Z,100.00
2023-02-01T10:29:13.381Z,100.00
2023-02-01T10:31:39.945Z,100.00
2023-02-01T10:34:06.318Z,100.00
2023-02-01T10:36:32.737Z,100.00
2023-02-01T10:38:59.133Z,100.00
2023-02-01T10:41:25.558Z,100.00
2023-02-01T10:43:51.924Z,100.00
2023-02-01T10:46:18.644Z,100.00
2023-02-01T10:48:44.977Z,100.00
2023-02-01T10:51:11.341Z,100.00
2023-02-01T10:53:38.312Z,100.00
2023-02-01T10:56:04.605Z,100.00
2023-02-01T10:58:32.665Z,100.00
2023-02-01T11:00:59.072Z,99.67
2023-02-01T11:03:25.410Z,98.66
2023-02-01T11:05:51.757Z,95.94
2023-02-01T11:08:18.223Z,95.40
2023-02-01T11:10:44.552Z,94.71
2023-02-01T11:13:10.857Z,93.50
2023-02-01T11:15:37.177Z,92.10
2023-02-01T11:18:03.654Z,91.33
2023-02-01T11:20:30.062Z,89.83
2023-02-01T11:22:56.498Z,89.99
2023-02-01T11:25:23.538Z,88.72
2023-02-01T11:27:55.423Z,89.08
2023-02-01T11:30:22.094Z,89.79
2023-02-01T11:32:48.509Z,88.84
2023-02-01T11:35:14.895Z,87.73
2023-02-01T11:37:41.241Z,85.98
2023-02-01T11:40:07.602Z,85.75
2023-02-01T11:42:33.925Z,84.10
2023-02-01T11:45:00.241Z,84.60
2023-02-01T11:47:26.764Z,83.84
2023-02-01T11:49:53.277Z,83.55
2023-02-01T11:52:19.796Z,83.48
2023-02-01T11:54:46.103Z,83.26
2023-02-01T11:57:12.477Z,82.80
2023-02-01T11:59:40.971Z,82.71
2023-02-01T12:02:09.506Z,84.58
2023-02-01T12:04:35.860Z,84.52
2023-02-01T12:07:02.348Z,84.12
2023-02-01T12:09:28.803Z,85.99
2023-02-01T12:11:55.377Z,83.70
2023-02-01T12:14:21.683Z,85.05
2023-02-01T12:16:48.094Z,84.75
2023-02-01T12:19:14.492Z,84.41
2023-02-01T12:21:40.803Z,83.18
2023-02-01T12:24:07.125Z,83.48
2023-02-01T12:26:33.570Z,82.59
2023-02-01T12:28:59.905Z,80.54
2023-02-01T12:31:26.269Z,81.17
2023-02-01T12:33:52.612Z,80.24
2023-02-01T12:36:18.954Z,79.46
2023-02-01T12:38:46.601Z,78.81
2023-02-01T12:41:12.923Z,79.88
2023-02-01T12:43:39.241Z,78.73
2023-02-01T12:46:05.589Z,79.30
2023-02-01T12:48:32.038Z,79.63
2023-02-01T12:51:00.579Z,78.57
2023-02-01T12:53:26.931Z,79.40
2023-02-01T12:55:53.339Z,79.10
2023-02-01T12:58:19.667Z,78.69
2023-02-01T13:00:46.123Z,78.33
2023-02-01T13:03:12.731Z,78.75
2023-02-01T13:05:39.075Z,78.57
2023-02-01T13:08:05.422Z,79.00
2023-02-01T13:10:31.762Z,78.69
2023-02-01T13:12:58.095Z,78.28
2023-02-01T13:15:24.440Z,79.02
2023-02-01T13:17:50.805Z,78.29
2023-02-01T13:20:17.117Z,78.42
2023-02-01T13:22:44.759Z,78.43
2023-02-01T13:25:11.141Z,78.20
2023-02-01T13:27:37.447Z,77.74
2023-02-01T13:30:04.085Z,77.21
2023-02-01T13:33:50.594Z,77.38
2023-02-01T13:35:17.345Z,76.85
2023-02-01T13:37:43.870Z,76.72
2023-02-01T13:40:10.243Z,75.42
2023-02-01T13:42:36.569Z,76.02
2023-02-01T13:45:02.919Z,76.45
2023-02-01T13:47:29.261Z,73.84
2023-02-01T13:49:55.721Z,74.90
2023-02-01T13:52:22.015Z,73.27
2023-02-01T13:54:48.352Z,73.24
2023-02-01T13:57:14.655Z,73.00
2023-02-01T13:59:41.015Z,73.15
2023-02-01T14:02:12.158Z,73.18
2023-02-01T14:04:38.556Z,72.00
2023-02-01T14:07:05.326Z,73.42
2023-02-01T14:09:31.675Z,71.95
2023-02-01T14:11:58.889Z,71.94
2023-02-01T14:14:25.359Z,71.99
2023-02-01T14:16:51.706Z,71.23
2023-02-01T14:19:18.018Z,71.97
2023-02-01T14:21:44.403Z,71.44
2023-02-01T14:24:10.708Z,71.47
2023-02-01T14:26:37.038Z,69.58
2023-02-01T14:29:03.561Z,69.42
2023-02-01T14:31:30.010Z,68.92
2023-02-01T14:33:56.384Z,69.11
2023-02-01T14:36:22.705Z,69.40
2023-02-01T14:38:49.297Z,68.43
2023-02-01T14:41:15.647Z,68.55
2023-02-01T14:43:42.715Z,69.34
2023-02-01T14:46:09.100Z,70.46
2023-02-01T14:48:35.783Z,69.68
2023-02-01T14:51:02.119Z,70.08
2023-02-01T14:53:30.317Z,70.76
2023-02-01T14:55:59.724Z,71.06
2023-02-01T14:58:26.085Z,69.89
2023-02-01T15:00:52.451Z,70.31
2023-02-01T15:03:18.815Z,70.12
2023-02-01T15:05:45.399Z,70.19
2023-02-01T15:08:11.710Z,69.97
2023-02-01T15:10:38.029Z,70.19
2023-02-01T15:13:04.458Z,71.02
2023-02-01T15:15:34.542Z,69.34
2023-02-01T15:18:01.219Z,69.65
2023-02-01T15:20:27.536Z,70.00
2023-02-01T15:22:54.609Z,70.27
2023-02-01T15:25:21.715Z,72.26
2023-02-01T15:27:48.310Z,73.73
2023-02-01T15:30:14.624Z,76.02
2023-02-01T15:32:40.925Z,77.95
2023-02-01T15:35:07.246Z,78.24
2023-02-01T15:37:35.314Z,80.12
2023-02-01T15:40:01.707Z,79.82
2023-02-01T15:42:28.584Z,77.83
2023-02-01T15:44:55.125Z,76.72
2023-02-01T15:47:21.459Z,76.00
2023-02-01T15:49:47.821Z,76.11
2023-02-01T15:52:14.134Z,76.13
2023-02-01T15:54:40.511Z,75.26
2023-02-01T15:57:06.947Z,74.16
2023-02-01T15:59:34.282Z,74.05
2023-02-01T16:02:00.713Z,73.95
2023-02-01T16:04:27.216Z,73.73
2023-02-01T16:06:53.670Z,73.75
2023-02-01T16:09:19.992Z,74.45
2023-02-01T16:11:46.329Z,74.59
2023-02-01T16:14:12.635Z,75.86
2023-02-01T16:16:38.970Z,76.43
2023-02-01T16:19:05.342Z,78.78
2023-02-01T16:21:31.850Z,79.83
2023-02-01T16:23:58.263Z,80.38
2023-02-01T16:26:24.615Z,81.92
2023-02-01T16:28:51.097Z,81.74
2023-02-01T16:31:20.348Z,83.76
2023-02-01T16:33:48.290Z,82.36
2023-02-01T16:36:15.251Z,82.05
2023-02-01T16:38:41.577Z,83.85
2023-02-01T16:41:13.345Z,84.32
2023-02-01T16:43:39.704Z,85.79
2023-02-01T16:46:06.234Z,87.70
2023-02-01T16:48:32.713Z,89.12
2023-02-01T16:50:59.098Z,90.54
2023-02-01T16:53:25.577Z,93.01
2023-02-01T16:55:53.398Z,94.33
2023-02-01T16:58:19.948Z,94.23
2023-02-01T17:00:46.478Z,95.42
2023-02-01T17:03:17.617Z,95.40
2023-02-01T17:05:44.082Z,96.74
2023-02-01T17:08:10.600Z,97.64
2023-02-01T17:10:36.963Z,99.70
2023-02-01T17:13:03.414Z,100.00
2023-02-01T17:15:29.905Z,100.00
2023-02-01T17:17:57.722Z,100.00
2023-02-01T17:20:24.155Z,100.00
2023-02-01T17:22:50.549Z,100.00
2023-02-01T17:25:17.035Z,100.00
2023-02-01T17:27:44.207Z,100.00
2023-02-01T17:30:10.689Z,100.00
2023-02-01T17:32:37.044Z,100.00
2023-02-01T17:35:03.957Z,100.00
2023-02-01T17:37:30.337Z,100.00
2023-02-01T17:39:56.738Z,100.00
2023-02-01T17:42:23.088Z,100.00
2023-02-01T17:44:49.568Z,100.00
2023-02-01T17:47:15.879Z,100.00
2023-02-01T17:49:42.212Z,100.00
2023-02-01T17:52:08.523Z,100.00
2023-02-01T17:54:35.110Z,99.88
2023-02-01T17:57:03.612Z,100.00
2023-02-01T17:59:29.968Z,99.79
2023-02-01T18:02:01.002Z,98.90
2023-02-01T18:04:27.439Z,97.41
2023-02-01T18:06:53.807Z,98.18
2023-02-01T18:09:20.156Z,97.95
2023-02-01T18:11:46.833Z,97.03
2023-02-01T18:14:16.191Z,96.58
2023-02-01T18:16:42.608Z,97.28
2023-02-01T18:19:08.996Z,96.03
2023-02-01T18:21:35.329Z,95.75
2023-02-01T18:24:01.707Z,96.38
2023-02-01T18:26:28.049Z,96.34
2023-02-01T18:28:54.447Z,96.46
2023-02-01T18:31:22.384Z,96.07
2023-02-01T18:33:50.908Z,95.57
2023-02-01T18:36:19.392Z,96.96
2023-02-01T18:38:45.738Z,95.60
2023-02-01T18:41:12.057Z,95.36
2023-02-01T18:43:38.386Z,96.71
2023-02-01T18:46:04.736Z,96.89
2023-02-01T18:48:31.298Z,96.61
2023-02-01T18:50:57.959Z,96.44
2023-02-01T18:53:27.262Z,96.65
2023-02-01T18:55:54.866Z,95.86
2023-02-01T18:58:23.031Z,95.50
2023-02-01T19:00:53.213Z,95.56
2023-02-01T19:03:19.533Z,95.98
2023-02-01T19:05:45.899Z,95.96
2023-02-01T19:08:12.317Z,93.13
2023-02-01T19:10:42.216Z,94.30
2023-02-01T19:13:08.523Z,94.20
2023-02-01T19:15:40.222Z,94.07
2023-02-01T19:18:06.653Z,94.12
2023-02-01T19:20:32.991Z,93.50
2023-02-01T19:22:59.314Z,92.99
2023-02-01T19:25:26.118Z,91.99
2023-02-01T19:27:52.762Z,92.26
2023-02-01T19:30:19.076Z,92.78
2023-02-01T19:32:45.629Z,91.57
2023-02-01T19:35:13.701Z,91.23
2023-02-01T19:37:41.487Z,91.45
2023-02-01T19:40:07.783Z,90.38
2023-02-01T19:42:34.111Z,91.12
2023-02-01T19:45:00.579Z,90.98
2023-02-01T19:47:26.913Z,91.72
2023-02-01T19:49:53.382Z,89.96
2023-02-01T19:52:19.847Z,89.99
2023-02-01T19:54:46.171Z,89.61
2023-02-01T19:57:12.572Z,88.50
2023-02-01T19:59:38.916Z,89.96
2023-02-01T20:04:36.441Z,88.83
2023-02-01T20:07:03.520Z,88.81
2023-02-01T20:09:30.202Z,89.19
2023-02-01T20:11:56.738Z,88.68
2023-02-01T20:14:24.272Z,88.06
2023-02-01T20:16:50.604Z,88.23
2023-02-01T20:19:17.104Z,89.25
2023-02-01T20:21:43.666Z,90.23
2023-02-01T20:24:10.114Z,89.74
2023-02-01T20:26:37.311Z,90.41
2023-02-01T20:29:04.165Z,90.14
2023-02-01T20:31:30.614Z,90.51
2023-02-01T20:33:57.019Z,88.37
2023-02-01T20:36:23.494Z,87.97
2023-02-01T20:38:49.829Z,88.34
2023-02-01T20:41:16.305Z,91.26
2023-02-01T20:43:42.749Z,95.71
2023-02-01T20:46:09.901Z,99.28
2023-02-01T20:48:36.364Z,100.00
2023-02-01T20:51:02.872Z,100.00
2023-02-01T20:53:29.216Z,100.00
2023-02-01T20:55:55.615Z,100.00
2023-02-01T20:58:21.960Z,100.00
2023-02-01T21:00:48.536Z,100.00
2023-02-01T21:03:14.992Z,100.00
2023-02-01T21:05:41.325Z,100.00
2023-02-01T21:08:08.976Z,100.00
2023-02-01T21:13:07.260Z,99.52
2023-02-01T21:15:34.943Z,98.70
2023-02-01T21:18:01.618Z,98.27
2023-02-01T21:20:28.117Z,97.85
2023-02-01T21:22:54.433Z,96.12
2023-02-01T21:25:20.791Z,95.28
2023-02-01T21:27:47.182Z,95.54
2023-02-01T21:30:13.711Z,95.74
2023-02-01T21:32:40.032Z,95.93
2023-02-01T21:35:06.363Z,95.64
2023-02-01T21:37:32.684Z,95.77
2023-02-01T21:39:59.001Z,95.35
2023-02-01T21:42:26.658Z,95.40
2023-02-01T21:44:53.056Z,94.70
2023-02-01T21:47:19.351Z,94.85
2023-02-01T21:49:47.633Z,94.12
2023-02-01T21:52:14.335Z,94.59
2023-02-01T21:54:40.659Z,94.65
2023-02-01T21:57:12.633Z,94.31
2023-02-01T21:59:39.068Z,93.69
2023-02-01T22:02:06.235Z,93.86
2023-02-01T22:04:32.662Z,93.84
2023-02-01T22:07:02.199Z,93.27
2023-02-01T22:09:28.558Z,93.36
2023-02-01T22:11:54.883Z,93.76
2023-02-01T22:14:21.217Z,94.28
2023-02-01T22:16:47.626Z,93.61
2023-02-01T22:19:14.012Z,93.70
2023-02-01T22:21:42.169Z,94.42
2023-02-01T22:24:08.488Z,94.72
2023-02-01T22:26:34.859Z,95.28
2023-02-01T22:29:01.200Z,94.55
2023-02-01T22:31:27.661Z,95.89
2023-02-01T22:33:54.037Z,96.08
2023-02-01T22:36:20.411Z,95.92
2023-02-01T22:38:46.723Z,96.33
2023-02-01T22:41:13.054Z,95.64
2023-02-01T22:43:39.367Z,95.21
2023-02-01T22:46:05.702Z,94.30
2023-02-01T22:48:32.026Z,94.32
2023-02-01T22:50:58.410Z,94.25
2023-02-01T22:53:24.804Z,93.15
2023-02-01T22:55:52.097Z,92.83
2023-02-01T22:58:18.476Z,93.16
2023-02-01T23:00:44.825Z,93.29
2023-02-01T23:03:11.199Z,93.03
2023-02-01T23:05:37.613Z,92.43
2023-02-01T23:08:03.925Z,91.79
2023-02-01T23:10:30.285Z,91.91
2023-02-01T23:12:56.584Z,91.48
2023-02-01T23:15:23.272Z,91.23
2023-02-01T23:17:49.768Z,90.41
2023-02-01T23:20:16.073Z,90.26
2023-02-01T23:22:42.476Z,88.93
2023-02-01T23:25:08.803Z,88.90
2023-02-01T23:27:35.111Z,88.40
2023-02-01T23:30:01.519Z,87.42
2023-02-01T23:32:27.856Z,87.06
2023-02-01T23:34:54.305Z,88.32
2023-02-01T23:37:20.722Z,87.75
2023-02-01T23:39:47.042Z,87.99
2023-02-01T23:42:13.384Z,87.94
2023-02-01T23:44:39.699Z,88.86
2023-02-01T23:47:06.015Z,87.55
2023-02-01T23:49:32.328Z,89.13
2023-02-01T23:51:58.628Z,89.52
2023-02-01T23:54:24.966Z,89.30
2023-02-01T23:56:51.316Z,88.86
2023-02-01T23:59:17.643Z,89.21
